Accueil
METAR-TAF:

METAR-TAF

Aéroports :

Biarritz, France

Aéroport de Biarritz Pays Basque

latitude: 43-28N, longitude: 001-32W, altitude: 75 m

Observation

Le bulletin a été fait il y a 44 minutes, à 19:30 UTC
Vent 5 kt de est/nord-est
Température 11°C
Humidité 71%
Pression 1015 hPa
Visibilité 10 km ou plus
pas de nuages en-dessous de 1500 mètres et pas de cumulonimbus.

METAR: LFBZ 041930Z AUTO 07005KT CAVOK 11/06 Q1015 NOSIG

Heure: 21:14 (20:14 UTC)

Prévision

Le bulletin a été fait il y a 3 heures et 14 minutes, à 17:00 UTC
Prévision valable du 04 à 18 UTC au 05 à 18 UTC
Vent 5 kt de est
Visibilité 10 km ou plus
pas de nuages en-dessous de 1500 mètres et pas de cumulonimbus.
Probabilité 30% :
Temporairement
du 04 à 23 UTC au 05 à 03 UTC
Vent 10 kt de sud/sud-est

TAF: LFBZ 041700Z 0418/0518 10005KT CAVOK PROB30 TEMPO 0423/0503 16010KT

Observations et prévisions météorologiques de plus de 4000 aéroports (messages METAR et TAF).

Les stations disponibles sont représentées par des disques jaunes et rouges sur la carte.

Passer la souris dessus pour voir le nom de la station.

Cliquer dessus pour voir les observations et prévisions météorologiques.

Pour changer de carte: cliquez sur les boutons verts avec une croix noire pour zoomer, sur le bouton vert avec un tiret pour effectuer un zoom arrière, ou sur les flèches vertes pour les cartes adjacentes.


METAR-TAF: